Metar z połowy godziny Komunikat METAR ze strony awiacja.imgw.pl Metar G00 EPSY METAR EPSY 171330Z 25013KT 200V280 CAVOK 27/12 Q1017=